createdAt,value
2017-08-23T00:00:10.304Z,98617.77
2017-08-23T00:02:37.780Z,98616.69
2017-08-23T00:05:05.228Z,98618.86
2017-08-23T00:07:32.710Z,98617.40
2017-08-23T00:10:00.221Z,98609.08
2017-08-23T00:12:27.681Z,98615.55
2017-08-23T00:14:55.153Z,98616.36
2017-08-23T00:17:22.609Z,98611.69
2017-08-23T00:22:26.705Z,98612.84
2017-08-23T00:24:54.184Z,98617.27
2017-08-23T00:27:21.633Z,98621.22
2017-08-23T00:29:49.077Z,98623.77
2017-08-23T00:32:16.550Z,98629.81
2017-08-23T00:34:44.012Z,98637.92
2017-08-23T00:37:11.466Z,98632.17
2017-08-23T00:39:38.944Z,98626.85
2017-08-23T00:42:06.390Z,98620.91
2017-08-23T00:44:33.848Z,98620.41
2017-08-23T00:47:01.322Z,98616.88
2017-08-23T00:49:28.811Z,98626.25
2017-08-23T00:51:56.273Z,98634.97
2017-08-23T00:54:23.729Z,98628.47
2017-08-23T00:56:51.204Z,98631.43
2017-08-23T00:59:18.657Z,98631.83
2017-08-23T01:01:46.111Z,98635.87
2017-08-23T01:04:13.571Z,98632.72
2017-08-23T01:06:41.076Z,98631.55
2017-08-23T01:09:08.550Z,98627.03
2017-08-23T01:11:36.024Z,98623.47
2017-08-23T01:14:03.511Z,98625.44
2017-08-23T01:16:30.984Z,98625.33
2017-08-23T01:18:58.462Z,98623.75
2017-08-23T01:21:25.909Z,98630.87
2017-08-23T01:23:53.361Z,98626.63
2017-08-23T01:28:57.658Z,98630.81
2017-08-23T01:31:25.120Z,98629.61
2017-08-23T01:33:52.568Z,98628.66
2017-08-23T01:36:20.042Z,98622.79
2017-08-23T01:38:47.501Z,98627.21
2017-08-23T01:41:14.953Z,98631.44
2017-08-23T01:43:42.429Z,98632.29
2017-08-23T01:46:10.213Z,98631.56
2017-08-23T01:48:37.697Z,98631.82
2017-08-23T01:51:05.172Z,98631.02
2017-08-23T01:53:32.631Z,98626.39
2017-08-23T01:56:00.109Z,98630.52
2017-08-23T01:58:27.558Z,98631.22
2017-08-23T02:00:55.008Z,98630.38
2017-08-23T02:03:22.498Z,98635.21
2017-08-23T02:05:49.979Z,98630.80
2017-08-23T02:08:17.437Z,98626.27
2017-08-23T02:10:44.902Z,98620.01
2017-08-23T02:13:12.383Z,98623.14
2017-08-23T02:15:39.862Z,98622.36
2017-08-23T02:18:07.314Z,98619.13
2017-08-23T02:20:34.769Z,98620.87
2017-08-23T02:23:02.340Z,98620.14
2017-08-23T02:25:29.813Z,98620.98
2017-08-23T02:27:57.293Z,98625.03
2017-08-23T02:30:24.761Z,98622.95
2017-08-23T02:32:52.242Z,98617.12
2017-08-23T02:35:19.724Z,98611.66
2017-08-23T02:37:47.218Z,98627.93
2017-08-23T02:40:14.697Z,98623.09
2017-08-23T02:42:42.186Z,98617.12
2017-08-23T02:45:09.636Z,98617.88
2017-08-23T02:47:37.084Z,98623.96
2017-08-23T02:50:04.568Z,98620.44
2017-08-23T02:52:32.053Z,98625.54
2017-08-23T02:54:59.506Z,98620.78
2017-08-23T02:57:26.979Z,98624.88
2017-08-23T02:59:54.433Z,98619.39
2017-08-23T03:02:21.913Z,98627.00
2017-08-23T03:04:49.373Z,98621.30
2017-08-23T03:07:16.838Z,98628.45
2017-08-23T03:09:44.295Z,98629.51
2017-08-23T03:12:11.766Z,98628.80
2017-08-23T03:14:39.236Z,98636.27
2017-08-23T03:17:06.689Z,98636.31
2017-08-23T03:19:34.165Z,98633.85
2017-08-23T03:22:01.605Z,98630.64
2017-08-23T03:24:29.048Z,98627.08
2017-08-23T03:26:56.517Z,98630.33
2017-08-23T03:29:24.169Z,98638.82
2017-08-23T03:31:51.640Z,98641.33
2017-08-23T03:34:19.076Z,98635.16
2017-08-23T03:36:46.553Z,98637.95
2017-08-23T03:39:14.013Z,98636.64
2017-08-23T03:41:41.478Z,98638.02
2017-08-23T03:44:08.942Z,98642.43
2017-08-23T03:46:36.384Z,98645.42
2017-08-23T03:49:03.865Z,98645.61
2017-08-23T03:51:31.329Z,98650.78
2017-08-23T03:53:58.777Z,98641.75
2017-08-23T03:56:26.253Z,98649.43
2017-08-23T03:58:53.700Z,98649.39
2017-08-23T04:01:21.182Z,98646.42
2017-08-23T04:03:48.676Z,98645.66
2017-08-23T04:06:16.161Z,98656.12
2017-08-23T04:08:43.619Z,98658.25
2017-08-23T04:11:11.071Z,98660.48
2017-08-23T04:13:38.550Z,98653.92
2017-08-23T04:16:06.010Z,98657.30
2017-08-23T04:18:33.477Z,98657.45
2017-08-23T04:21:00.942Z,98660.08
2017-08-23T04:23:28.411Z,98656.93
2017-08-23T04:25:55.893Z,98662.73
2017-08-23T04:28:23.353Z,98657.64
2017-08-23T04:30:50.805Z,98658.03
2017-08-23T04:33:18.278Z,98658.92
2017-08-23T04:35:45.734Z,98663.37
2017-08-23T04:38:13.210Z,98668.63
2017-08-23T04:40:40.657Z,98664.88
2017-08-23T04:43:08.128Z,98670.89
2017-08-23T04:45:35.597Z,98668.74
2017-08-23T04:48:03.044Z,98666.56
2017-08-23T04:50:30.528Z,98668.37
2017-08-23T04:52:57.980Z,98664.41
2017-08-23T04:55:25.463Z,98667.66
2017-08-23T04:57:52.907Z,98670.70
2017-08-23T05:00:20.381Z,98673.88
2017-08-23T05:02:47.838Z,98672.37
2017-08-23T05:05:15.294Z,98669.95
2017-08-23T05:07:42.768Z,98669.20
2017-08-23T05:10:10.219Z,98672.02
2017-08-23T05:12:37.701Z,98676.44
2017-08-23T05:15:05.164Z,98672.08
2017-08-23T05:17:32.641Z,98675.20
2017-08-23T05:20:00.404Z,98679.67
2017-08-23T05:22:27.854Z,98675.13
2017-08-23T05:24:55.304Z,98677.27
2017-08-23T05:27:22.778Z,98681.03
2017-08-23T05:29:50.233Z,98681.84
2017-08-23T05:32:17.705Z,98685.78
2017-08-23T05:34:45.186Z,98688.88
2017-08-23T05:37:12.676Z,98687.61
2017-08-23T05:39:40.145Z,98680.69
2017-08-23T05:42:07.600Z,98679.38
2017-08-23T05:44:35.054Z,98680.80
2017-08-23T05:47:02.536Z,98680.55
2017-08-23T05:49:30.015Z,98686.20
2017-08-23T05:51:57.488Z,98690.70
2017-08-23T05:54:25.151Z,98682.91
2017-08-23T05:56:52.604Z,98688.45
2017-08-23T05:59:20.063Z,98685.20
2017-08-23T06:01:47.544Z,98684.02
2017-08-23T06:04:15.026Z,98680.50
2017-08-23T06:06:42.505Z,98688.12
2017-08-23T06:09:09.964Z,98687.19
2017-08-23T06:11:37.433Z,98690.93
2017-08-23T06:14:04.912Z,98687.95
2017-08-23T06:16:32.389Z,98685.95
2017-08-23T06:18:59.853Z,98686.06
2017-08-23T06:21:27.306Z,98687.31
2017-08-23T06:23:54.787Z,98684.72
2017-08-23T06:26:22.245Z,98685.99
2017-08-23T06:28:49.744Z,98682.81
2017-08-23T06:31:17.237Z,98687.95
2017-08-23T06:33:44.689Z,98687.84
2017-08-23T06:36:12.181Z,98694.73
2017-08-23T06:38:39.634Z,98689.87
2017-08-23T06:41:07.085Z,98694.27
2017-08-23T06:43:34.560Z,98692.63
2017-08-23T06:46:02.025Z,98698.07
2017-08-23T06:48:29.508Z,98688.70
2017-08-23T06:50:56.972Z,98692.17
2017-08-23T06:53:24.464Z,98692.16
2017-08-23T06:55:51.919Z,98694.12
2017-08-23T06:58:19.368Z,98685.91
2017-08-23T07:00:46.841Z,98685.80
2017-08-23T07:03:14.296Z,98685.05
2017-08-23T07:05:41.769Z,98682.86
2017-08-23T07:08:09.222Z,98685.61
2017-08-23T07:10:36.689Z,98687.34
2017-08-23T07:13:04.141Z,98690.80
2017-08-23T07:15:31.616Z,98682.67
2017-08-23T07:17:59.084Z,98687.00
2017-08-23T07:20:26.545Z,98692.52
2017-08-23T07:22:54.024Z,98689.64
2017-08-23T07:25:21.497Z,98693.19
2017-08-23T07:27:48.940Z,98694.68
2017-08-23T07:30:16.418Z,98684.81
2017-08-23T07:32:43.899Z,98687.89
2017-08-23T07:35:11.365Z,98693.02
2017-08-23T07:37:38.823Z,98693.02
2017-08-23T07:40:06.281Z,98692.39
2017-08-23T07:42:33.745Z,98700.03
2017-08-23T07:45:01.197Z,98700.13
2017-08-23T07:47:28.665Z,98693.30
2017-08-23T07:49:56.141Z,98700.84
2017-08-23T07:52:23.580Z,98695.59
2017-08-23T07:54:51.049Z,98695.88
2017-08-23T07:57:18.518Z,98695.69
2017-08-23T07:59:45.965Z,98695.74
2017-08-23T08:02:13.434Z,98693.89
2017-08-23T08:04:40.882Z,98695.69
2017-08-23T08:07:08.348Z,98695.38
2017-08-23T08:09:35.834Z,98696.06
2017-08-23T08:12:03.278Z,98691.19
2017-08-23T08:14:30.725Z,98695.16
2017-08-23T08:16:58.192Z,98690.86
2017-08-23T08:19:25.638Z,98685.06
2017-08-23T08:21:53.085Z,98687.66
2017-08-23T08:24:20.554Z,98687.89
2017-08-23T08:26:48.005Z,98684.52
2017-08-23T08:29:15.450Z,98679.39
2017-08-23T08:31:42.917Z,98678.31
2017-08-23T08:34:10.369Z,98686.61
2017-08-23T08:36:37.837Z,98685.03
2017-08-23T08:39:05.286Z,98681.09
2017-08-23T08:41:32.757Z,98682.76
2017-08-23T08:44:00.197Z,98677.08
2017-08-23T08:46:27.677Z,98672.33
2017-08-23T08:48:55.125Z,98674.48
2017-08-23T08:51:22.589Z,98675.87
2017-08-23T08:53:50.043Z,98675.47
2017-08-23T08:56:17.510Z,98663.12
2017-08-23T08:58:44.977Z,98669.67
2017-08-23T09:01:12.425Z,98665.28
2017-08-23T09:03:39.882Z,98650.55
2017-08-23T09:06:07.353Z,98653.22
2017-08-23T09:08:34.796Z,98654.88
2017-08-23T09:11:02.302Z,98649.92
2017-08-23T09:13:29.761Z,98649.06
2017-08-23T09:15:57.220Z,98643.33
2017-08-23T09:18:24.709Z,98641.27
2017-08-23T09:20:52.149Z,98645.39
2017-08-23T09:23:19.620Z,98639.61
2017-08-23T09:25:47.062Z,98638.14
2017-08-23T09:28:14.506Z,98640.23
2017-08-23T09:30:41.977Z,98643.19
2017-08-23T09:33:09.433Z,98639.77
2017-08-23T09:35:36.878Z,98638.72
2017-08-23T09:38:04.350Z,98636.67
2017-08-23T09:40:31.796Z,98643.53
2017-08-23T09:42:59.526Z,98643.77
2017-08-23T09:45:27.041Z,98639.70
2017-08-23T09:47:54.486Z,98638.09
2017-08-23T09:50:21.960Z,98633.01
2017-08-23T09:52:49.403Z,98639.50
2017-08-23T09:55:17.138Z,98629.11
2017-08-23T09:57:44.594Z,98636.78
2017-08-23T10:00:12.038Z,98628.95
2017-08-23T10:02:39.501Z,98623.27
2017-08-23T10:05:06.952Z,98622.44
2017-08-23T10:07:34.396Z,98617.12
2017-08-23T10:10:01.865Z,98617.98
2017-08-23T10:12:29.308Z,98615.89
2017-08-23T10:14:56.777Z,98617.16
2017-08-23T10:17:24.228Z,98616.38
2017-08-23T10:19:51.685Z,98613.85
2017-08-23T10:22:19.236Z,98612.78
2017-08-23T10:24:46.684Z,98613.35
2017-08-23T10:27:14.166Z,98609.34
2017-08-23T10:29:41.625Z,98606.55
2017-08-23T10:32:09.074Z,98605.47
2017-08-23T10:34:36.532Z,98605.23
2017-08-23T10:37:04.004Z,98607.09
2017-08-23T10:39:31.482Z,98606.02
2017-08-23T10:41:58.953Z,98606.55
2017-08-23T10:44:26.396Z,98605.52
2017-08-23T10:46:53.869Z,98603.95
2017-08-23T10:49:21.313Z,98600.30
2017-08-23T10:51:48.797Z,98597.85
2017-08-23T10:54:16.242Z,98598.19
2017-08-23T10:56:43.694Z,98598.27
2017-08-23T10:59:11.168Z,98596.82
2017-08-23T11:01:38.639Z,98597.93
2017-08-23T11:04:06.090Z,98595.41
2017-08-23T11:06:33.550Z,98594.67
2017-08-23T11:09:00.997Z,98595.48
2017-08-23T11:11:28.473Z,98589.50
2017-08-23T11:13:55.916Z,98592.89
2017-08-23T11:16:23.372Z,98591.23
2017-08-23T11:18:50.833Z,98590.34
2017-08-23T11:21:18.288Z,98587.12
2017-08-23T11:23:45.768Z,98583.18
2017-08-23T11:26:13.216Z,98582.52
2017-08-23T11:28:40.664Z,98584.98
2017-08-23T11:31:08.133Z,98574.38
2017-08-23T11:33:35.585Z,98582.45
2017-08-23T11:36:03.067Z,98576.87
2017-08-23T11:38:30.530Z,98577.56
2017-08-23T11:40:57.992Z,98575.89
2017-08-23T11:43:25.455Z,98571.55
2017-08-23T11:45:52.924Z,98568.62
2017-08-23T11:48:20.390Z,98566.00
2017-08-23T11:50:47.862Z,98561.48
2017-08-23T11:53:15.310Z,98563.46
2017-08-23T11:55:42.774Z,98554.37
2017-08-23T11:58:10.229Z,98552.11
2017-08-23T12:00:37.670Z,98553.35
2017-08-23T12:03:05.141Z,98549.77
2017-08-23T12:05:32.586Z,98548.40
2017-08-23T12:08:00.042Z,98541.39
2017-08-23T12:10:27.509Z,98539.73
2017-08-23T12:12:54.955Z,98535.61
2017-08-23T12:15:22.428Z,98540.03
2017-08-23T12:17:49.895Z,98527.98
2017-08-23T12:20:17.341Z,98532.84
2017-08-23T12:22:44.813Z,98531.62
2017-08-23T12:25:12.251Z,98526.30
2017-08-23T12:27:39.979Z,98517.80
2017-08-23T12:30:07.445Z,98510.08
2017-08-23T12:32:34.916Z,98521.11
2017-08-23T12:35:02.381Z,98509.63
2017-08-23T12:37:29.856Z,98512.59
2017-08-23T12:39:57.302Z,98512.92
2017-08-23T12:42:24.746Z,98508.12
2017-08-23T12:44:52.233Z,98508.70
2017-08-23T12:47:19.681Z,98511.89
2017-08-23T12:49:47.154Z,98503.45
2017-08-23T12:52:14.605Z,98507.21
2017-08-23T12:54:42.085Z,98497.03
2017-08-23T12:57:09.528Z,98504.06
2017-08-23T12:59:36.989Z,98498.87
2017-08-23T13:02:04.441Z,98496.88
2017-08-23T13:04:31.916Z,98489.41
2017-08-23T13:06:59.371Z,98484.76
2017-08-23T13:09:26.839Z,98489.95
2017-08-23T13:11:54.312Z,98484.98
2017-08-23T13:14:21.780Z,98482.48
2017-08-23T13:16:49.222Z,98483.98
2017-08-23T13:19:16.693Z,98476.78
2017-08-23T13:21:44.172Z,98479.70
2017-08-23T13:24:11.646Z,98484.06
2017-08-23T13:26:39.102Z,98477.95
2017-08-23T13:29:06.564Z,98490.16
2017-08-23T13:31:34.025Z,98484.67
2017-08-23T13:34:01.473Z,98480.61
2017-08-23T13:36:28.941Z,98475.14
2017-08-23T13:38:56.409Z,98476.61
2017-08-23T13:41:23.876Z,98480.12
2017-08-23T13:43:51.346Z,98477.27
2017-08-23T13:46:18.818Z,98464.88
2017-08-23T13:48:46.260Z,98476.86
2017-08-23T13:51:13.725Z,98470.91
2017-08-23T13:53:41.189Z,98472.98
2017-08-23T13:56:08.642Z,98468.92
2017-08-23T13:58:36.106Z,98461.75
2017-08-23T14:01:03.574Z,98464.95
2017-08-23T14:03:31.017Z,98465.53
2017-08-23T14:05:58.494Z,98469.31
2017-08-23T14:08:25.945Z,98470.45
2017-08-23T14:10:53.398Z,98469.59
2017-08-23T14:13:20.888Z,98460.85
2017-08-23T14:15:48.344Z,98456.91
2017-08-23T14:18:15.811Z,98463.60
2017-08-23T14:20:43.281Z,98454.62
2017-08-23T14:23:10.748Z,98445.53
2017-08-23T14:25:38.189Z,98450.51
2017-08-23T14:28:05.653Z,98443.92
2017-08-23T14:30:33.161Z,98447.55
2017-08-23T14:33:00.594Z,98441.31
2017-08-23T14:35:28.279Z,98442.91
2017-08-23T14:37:55.749Z,98455.47
2017-08-23T14:40:23.232Z,98450.02
2017-08-23T14:42:50.677Z,98442.42
2017-08-23T14:45:18.153Z,98442.08
2017-08-23T14:47:45.602Z,98438.48
2017-08-23T14:50:13.050Z,98440.30
2017-08-23T14:52:40.514Z,98439.94
2017-08-23T14:55:07.950Z,98444.91
2017-08-23T14:57:35.420Z,98437.69
2017-08-23T15:00:02.889Z,98433.45
2017-08-23T15:02:30.340Z,98434.22
2017-08-23T15:04:57.829Z,98432.90
2017-08-23T15:07:25.301Z,98434.19
2017-08-23T15:09:52.783Z,98430.91
2017-08-23T15:12:20.234Z,98438.62
2017-08-23T15:14:47.684Z,98436.53
2017-08-23T15:17:15.149Z,98440.19
2017-08-23T15:19:42.941Z,98435.78
2017-08-23T15:22:10.417Z,98438.87
2017-08-23T15:24:37.875Z,98437.53
2017-08-23T15:27:05.337Z,98440.38
2017-08-23T15:29:32.810Z,98429.66
2017-08-23T15:32:00.261Z,98435.34
2017-08-23T15:34:27.744Z,98423.78
2017-08-23T15:36:55.201Z,98420.48
2017-08-23T15:39:22.649Z,98416.92
2017-08-23T15:41:50.123Z,98415.20
2017-08-23T15:44:17.564Z,98413.42
2017-08-23T15:46:45.033Z,98417.23
2017-08-23T15:49:12.477Z,98411.10
2017-08-23T15:51:39.957Z,98415.92
2017-08-23T15:54:07.409Z,98412.45
2017-08-23T15:56:34.850Z,98413.90
2017-08-23T15:59:02.323Z,98409.68
2017-08-23T16:01:29.784Z,98408.83
2017-08-23T16:03:57.225Z,98401.52
2017-08-23T16:06:24.666Z,98404.95
2017-08-23T16:08:52.157Z,98406.45
2017-08-23T16:11:19.626Z,98410.83
2017-08-23T16:13:47.064Z,98403.23
2017-08-23T16:16:14.538Z,98402.92
2017-08-23T16:18:41.985Z,98408.25
2017-08-23T16:21:09.445Z,98406.55
2017-08-23T16:23:36.908Z,98409.97
2017-08-23T16:26:04.369Z,98403.83
2017-08-23T16:28:31.818Z,98407.72
2017-08-23T16:30:59.281Z,98405.33
2017-08-23T16:33:26.742Z,98402.13
2017-08-23T16:35:54.227Z,98404.15
2017-08-23T16:38:21.676Z,98398.25
2017-08-23T16:40:49.164Z,98403.89
2017-08-23T16:43:16.634Z,98405.97
2017-08-23T16:45:44.070Z,98401.84
2017-08-23T16:48:11.612Z,98401.55
2017-08-23T16:50:39.074Z,98399.41
2017-08-23T16:53:06.532Z,98402.41
2017-08-23T16:55:34.066Z,98406.52
2017-08-23T16:58:01.574Z,98407.79
2017-08-23T17:00:29.022Z,98402.16
2017-08-23T17:02:56.489Z,98404.98
2017-08-23T17:05:24.014Z,98408.87
2017-08-23T17:07:51.461Z,98409.84
2017-08-23T17:10:18.943Z,98403.06
2017-08-23T17:12:46.438Z,98402.31
2017-08-23T17:15:13.900Z,98407.86
2017-08-23T17:17:41.510Z,98406.91
2017-08-23T17:20:08.989Z,98408.78
2017-08-23T17:22:36.540Z,98415.37
2017-08-23T17:25:04.027Z,98408.94
2017-08-23T17:27:31.560Z,98406.50
2017-08-23T17:29:59.014Z,98404.45
2017-08-23T17:32:27.340Z,98412.30
2017-08-23T17:34:54.807Z,98410.93
2017-08-23T17:37:22.267Z,98412.23
2017-08-23T17:39:49.748Z,98411.95
2017-08-23T17:42:17.192Z,98409.76
2017-08-23T17:44:44.642Z,98421.83
2017-08-23T17:47:12.114Z,98418.81
2017-08-23T17:49:39.594Z,98422.35
2017-08-23T17:52:07.050Z,98429.06
2017-08-23T17:54:34.516Z,98428.85
2017-08-23T17:57:01.973Z,98433.59
2017-08-23T17:59:29.534Z,98430.13
2017-08-23T18:01:57.016Z,98432.44
2017-08-23T18:04:24.484Z,98431.30
2017-08-23T18:06:51.934Z,98434.88
2017-08-23T18:09:19.398Z,98434.97
2017-08-23T18:11:48.634Z,98435.45
2017-08-23T18:14:16.204Z,98437.78
2017-08-23T18:16:43.889Z,98437.39
2017-08-23T18:19:11.344Z,98435.50
2017-08-23T18:21:39.848Z,98433.56
2017-08-23T18:24:08.913Z,98437.22
2017-08-23T18:26:36.441Z,98435.11
2017-08-23T18:29:04.248Z,98439.97
2017-08-23T18:31:31.725Z,98447.75
2017-08-23T18:34:00.685Z,98441.52
2017-08-23T18:36:29.592Z,98455.00
2017-08-23T18:38:57.562Z,98449.33
2017-08-23T18:41:25.271Z,98456.84
2017-08-23T18:43:52.778Z,98451.73
2017-08-23T18:46:21.117Z,98456.61
2017-08-23T18:48:49.771Z,98462.80
2017-08-23T18:51:17.288Z,98458.56
2017-08-23T18:53:45.856Z,98461.89
2017-08-23T18:56:14.200Z,98467.70
2017-08-23T18:58:41.872Z,98462.64
2017-08-23T19:01:09.536Z,98473.08
2017-08-23T19:03:36.999Z,98470.60
2017-08-23T19:06:05.589Z,98467.22
2017-08-23T19:08:34.519Z,98467.55
2017-08-23T19:11:02.021Z,98468.70
2017-08-23T19:13:29.494Z,98472.47
2017-08-23T19:15:57.264Z,98468.56
2017-08-23T19:18:26.050Z,98465.27
2017-08-23T19:20:54.421Z,98472.62
2017-08-23T19:23:21.957Z,98478.66
2017-08-23T19:25:49.436Z,98476.77
2017-08-23T19:28:16.885Z,98481.32
2017-08-23T19:30:44.357Z,98487.78
2017-08-23T19:33:11.828Z,98484.55
2017-08-23T19:35:39.294Z,98483.98
2017-08-23T19:38:06.954Z,98485.22
2017-08-23T19:40:34.409Z,98483.50
2017-08-23T19:43:01.860Z,98484.83
2017-08-23T19:45:29.351Z,98485.01
2017-08-23T19:47:57.117Z,98484.03
2017-08-23T19:50:24.559Z,98482.38
2017-08-23T19:52:52.037Z,98480.74
2017-08-23T19:55:19.530Z,98478.67
2017-08-23T19:57:47.013Z,98479.88
2017-08-23T20:00:14.445Z,98482.54
2017-08-23T20:02:42.182Z,98480.83
2017-08-23T20:05:09.646Z,98484.35
2017-08-23T20:07:37.093Z,98478.74
2017-08-23T20:10:04.569Z,98477.47
2017-08-23T20:12:32.070Z,98476.73
2017-08-23T20:14:59.545Z,98478.27
2017-08-23T20:17:26.997Z,98478.45
2017-08-23T20:19:54.456Z,98478.93
2017-08-23T20:22:21.918Z,98482.73
2017-08-23T20:24:49.395Z,98483.00
2017-08-23T20:27:16.881Z,98484.47
2017-08-23T20:29:44.373Z,98484.72
2017-08-23T20:32:11.845Z,98485.95
2017-08-23T20:34:39.301Z,98481.17
2017-08-23T20:37:06.777Z,98482.42
2017-08-23T20:39:34.233Z,98483.34
2017-08-23T20:42:01.717Z,98488.69
2017-08-23T20:44:29.189Z,98490.09
2017-08-23T20:46:56.640Z,98490.75
2017-08-23T20:49:24.121Z,98493.14
2017-08-23T20:51:51.578Z,98490.49
2017-08-23T20:54:19.070Z,98503.28
2017-08-23T20:56:46.534Z,98496.96
2017-08-23T20:59:14.000Z,98503.52
2017-08-23T21:01:41.574Z,98505.91
2017-08-23T21:04:09.053Z,98498.61
2017-08-23T21:06:36.524Z,98499.22
2017-08-23T21:09:03.988Z,98507.94
2017-08-23T21:11:31.466Z,98507.99
2017-08-23T21:13:58.961Z,98510.71
2017-08-23T21:16:26.418Z,98506.00
2017-08-23T21:18:53.898Z,98510.23
2017-08-23T21:21:21.349Z,98508.81
2017-08-23T21:23:48.798Z,98508.70
2017-08-23T21:26:16.273Z,98511.05
2017-08-23T21:28:43.724Z,98509.70
2017-08-23T21:31:11.210Z,98513.91
2017-08-23T21:33:38.670Z,98510.44
2017-08-23T21:36:06.129Z,98510.45
2017-08-23T21:38:33.619Z,98513.23
2017-08-23T21:41:01.070Z,98518.56
2017-08-23T21:43:28.557Z,98510.17
2017-08-23T21:45:56.032Z,98512.02
2017-08-23T21:48:23.497Z,98511.77
2017-08-23T21:50:50.978Z,98511.83
2017-08-23T21:53:18.465Z,98517.00
2017-08-23T21:55:45.916Z,98519.09
2017-08-23T21:58:13.370Z,98514.34
2017-08-23T22:00:40.838Z,98518.47
2017-08-23T22:03:08.293Z,98521.16
2017-08-23T22:05:35.777Z,98522.09
2017-08-23T22:08:03.221Z,98522.58
2017-08-23T22:10:30.673Z,98523.67
2017-08-23T22:12:58.148Z,98522.16
2017-08-23T22:15:25.598Z,98520.36
2017-08-23T22:17:53.053Z,98519.55
2017-08-23T22:20:20.529Z,98522.95
2017-08-23T22:22:47.980Z,98523.59
2017-08-23T22:25:15.449Z,98517.09
2017-08-23T22:27:42.905Z,98529.16
2017-08-23T22:30:10.377Z,98519.55
2017-08-23T22:32:37.856Z,98518.65
2017-08-23T22:35:05.309Z,98516.09
2017-08-23T22:37:32.760Z,98516.66
2017-08-23T22:40:00.245Z,98516.58
2017-08-23T22:42:27.721Z,98519.19
2017-08-23T22:44:55.197Z,98524.47
2017-08-23T22:47:22.687Z,98528.05
2017-08-23T22:49:50.154Z,98520.87
2017-08-23T22:52:17.632Z,98523.09
2017-08-23T22:54:45.089Z,98515.92
2017-08-23T22:57:12.545Z,98510.88
2017-08-23T22:59:40.197Z,98507.69
2017-08-23T23:02:07.653Z,98510.55
2017-08-23T23:04:35.106Z,98513.81
2017-08-23T23:07:02.880Z,98510.35
2017-08-23T23:09:30.334Z,98508.19
2017-08-23T23:11:57.785Z,98507.50
2017-08-23T23:14:25.564Z,98502.86
2017-08-23T23:16:53.022Z,98497.84
2017-08-23T23:19:20.485Z,98497.44
2017-08-23T23:21:47.956Z,98501.58
2017-08-23T23:24:15.410Z,98502.08
2017-08-23T23:26:42.873Z,98509.97
2017-08-23T23:29:10.357Z,98505.05
2017-08-23T23:31:37.810Z,98512.39
2017-08-23T23:34:05.312Z,98506.44
2017-08-23T23:36:32.770Z,98504.43
2017-08-23T23:39:00.219Z,98513.14
2017-08-23T23:41:27.697Z,98509.20
2017-08-23T23:43:55.168Z,98517.20
2017-08-23T23:46:22.641Z,98514.95
2017-08-23T23:48:50.110Z,98513.61
2017-08-23T23:51:17.561Z,98516.38
2017-08-23T23:53:45.042Z,98517.50
2017-08-23T23:56:12.497Z,98510.88
2017-08-23T23:58:39.967Z,98514.47
